createdAt,value
2019-02-19T00:00:26.187Z,4.29
2019-02-19T00:01:26.138Z,4.16
2019-02-19T00:02:56.829Z,4.33
2019-02-19T00:03:56.833Z,4.37
2019-02-19T00:05:27.515Z,4.26
2019-02-19T00:06:27.490Z,4.33
2019-02-19T00:07:58.152Z,4.33
2019-02-19T00:08:58.139Z,4.36
2019-02-19T00:10:28.852Z,4.40
2019-02-19T00:11:28.809Z,4.34
2019-02-19T00:12:59.497Z,4.40
2019-02-19T00:13:59.491Z,4.33
2019-02-19T00:15:30.155Z,4.40
2019-02-19T00:16:30.133Z,4.33
2019-02-19T00:18:00.828Z,4.40
2019-02-19T00:19:00.801Z,4.42
2019-02-19T00:20:31.513Z,4.42
2019-02-19T00:21:31.491Z,4.42
2019-02-19T00:22:31.479Z,4.44
2019-02-19T00:23:31.487Z,4.47
2019-02-19T00:24:31.455Z,4.32
2019-02-19T00:25:31.444Z,4.37
2019-02-19T00:26:31.429Z,4.37
2019-02-19T00:27:31.419Z,4.30
2019-02-19T00:28:31.415Z,4.30
2019-02-19T00:29:31.395Z,4.34
2019-02-19T00:30:31.385Z,4.42
2019-02-19T00:31:31.376Z,4.37
2019-02-19T00:32:31.372Z,4.40
2019-02-19T00:33:31.356Z,4.34
2019-02-19T00:34:31.357Z,4.27
2019-02-19T00:35:31.338Z,4.32
2019-02-19T00:36:31.339Z,4.47
2019-02-19T00:37:31.313Z,4.42
2019-02-19T00:38:31.317Z,4.50
2019-02-19T00:39:31.291Z,4.55
2019-02-19T00:40:31.282Z,4.55
2019-02-19T00:41:31.268Z,4.45
2019-02-19T00:42:31.264Z,4.44
2019-02-19T00:43:31.251Z,4.45
2019-02-19T00:44:31.235Z,4.44
2019-02-19T00:45:31.236Z,4.37
2019-02-19T00:46:31.225Z,4.32
2019-02-19T00:47:31.213Z,4.41
2019-02-19T00:48:31.196Z,4.30
2019-02-19T00:49:31.184Z,4.36
2019-02-19T00:50:31.178Z,4.34
2019-02-19T00:51:31.163Z,4.32
2019-02-19T00:52:31.153Z,4.27
2019-02-19T00:53:31.150Z,4.34
2019-02-19T00:54:31.129Z,4.32
2019-02-19T00:55:31.135Z,4.36
2019-02-19T00:56:31.105Z,4.26
2019-02-19T00:57:31.102Z,4.32
2019-02-19T00:58:31.083Z,4.32
2019-02-19T00:59:31.082Z,4.45
2019-02-19T01:00:31.059Z,4.29
2019-02-19T01:01:31.055Z,4.40
2019-02-19T01:02:31.049Z,4.30
2019-02-19T01:03:31.052Z,4.29
2019-02-19T01:04:31.021Z,4.37
2019-02-19T01:05:31.014Z,4.32
2019-02-19T01:06:31.003Z,4.37
2019-02-19T01:07:30.996Z,4.34
2019-02-19T01:08:30.980Z,4.40
2019-02-19T01:09:30.989Z,4.33
2019-02-19T01:10:30.961Z,4.33
2019-02-19T01:11:30.947Z,4.45
2019-02-19T01:12:30.949Z,4.34
2019-02-19T01:13:30.935Z,4.41
2019-02-19T01:14:30.919Z,4.20
2019-02-19T01:15:30.905Z,4.29
2019-02-19T01:16:30.897Z,4.32
2019-02-19T01:17:30.881Z,4.40
2019-02-19T01:18:30.873Z,4.32
2019-02-19T01:19:30.867Z,4.30
2019-02-19T01:20:30.845Z,4.30
2019-02-19T01:21:30.850Z,4.30
2019-02-19T01:22:30.839Z,4.33
2019-02-19T01:23:30.821Z,4.36
2019-02-19T01:24:30.813Z,4.36
2019-02-19T01:25:30.811Z,4.33
2019-02-19T01:26:30.787Z,4.26
2019-02-19T01:27:30.773Z,4.29
2019-02-19T01:28:30.766Z,4.30
2019-02-19T01:29:30.757Z,4.34
2019-02-19T01:30:30.745Z,4.44
2019-02-19T01:31:30.737Z,4.33
2019-02-19T01:32:30.728Z,4.30
2019-02-19T01:33:30.715Z,4.23
2019-02-19T01:34:30.703Z,4.30
2019-02-19T01:35:30.711Z,4.24
2019-02-19T01:36:30.681Z,4.22
2019-02-19T01:37:30.679Z,4.26
2019-02-19T01:38:30.657Z,4.23
2019-02-19T01:39:30.653Z,4.26
2019-02-19T01:40:30.635Z,4.22
2019-02-19T01:41:30.625Z,4.16
2019-02-19T01:42:30.613Z,4.20
2019-02-19T01:43:30.609Z,4.18
2019-02-19T01:44:30.591Z,4.18
2019-02-19T01:45:34.094Z,4.20
2019-02-19T01:46:30.574Z,4.20
2019-02-19T01:47:30.563Z,4.20
2019-02-19T01:48:30.560Z,4.20
2019-02-19T01:49:30.543Z,4.26
2019-02-19T01:50:30.530Z,4.18
2019-02-19T01:51:30.518Z,4.24
2019-02-19T01:52:30.525Z,4.20
2019-02-19T01:53:30.499Z,4.29
2019-02-19T01:54:30.493Z,4.26
2019-02-19T01:55:30.477Z,4.30
2019-02-19T01:56:30.467Z,4.29
2019-02-19T01:57:30.461Z,4.24
2019-02-19T01:58:30.443Z,4.24
2019-02-19T01:59:30.433Z,4.16
2019-02-19T02:00:30.437Z,4.15
2019-02-19T02:01:30.418Z,4.12
2019-02-19T02:02:30.404Z,4.18
2019-02-19T02:03:30.394Z,4.12
2019-02-19T02:04:30.382Z,4.11
2019-02-19T02:05:30.372Z,4.14
2019-02-19T02:06:30.366Z,4.14
2019-02-19T02:07:30.355Z,4.15
2019-02-19T02:08:30.363Z,4.15
2019-02-19T02:09:30.333Z,4.16
2019-02-19T02:10:30.321Z,4.15
2019-02-19T02:11:30.313Z,4.20
2019-02-19T02:12:30.297Z,4.16
2019-02-19T02:13:30.285Z,4.23
2019-02-19T02:14:30.277Z,4.15
2019-02-19T02:15:30.262Z,4.18
2019-02-19T02:16:30.260Z,4.14
2019-02-19T02:17:30.237Z,4.20
2019-02-19T02:18:30.235Z,4.18
2019-02-19T02:19:30.218Z,4.06
2019-02-19T02:20:30.211Z,4.14
2019-02-19T02:21:30.224Z,4.15
2019-02-19T02:22:30.228Z,4.08
2019-02-19T02:23:30.193Z,4.05
2019-02-19T02:24:30.169Z,4.09
2019-02-19T02:25:30.173Z,4.12
2019-02-19T02:26:30.147Z,4.12
2019-02-19T02:27:30.136Z,4.12
2019-02-19T02:28:30.134Z,4.09
2019-02-19T02:29:30.120Z,4.15
2019-02-19T02:30:30.116Z,4.11
2019-02-19T02:31:30.094Z,4.08
2019-02-19T02:32:30.083Z,4.12
2019-02-19T02:33:30.079Z,4.12
2019-02-19T02:34:30.071Z,4.06
2019-02-19T02:35:30.054Z,4.16
2019-02-19T02:36:30.043Z,4.20
2019-02-19T02:37:30.027Z,4.16
2019-02-19T02:38:30.018Z,4.15
2019-02-19T02:39:30.006Z,4.16
2019-02-19T02:40:30.007Z,4.20
2019-02-19T02:41:29.987Z,4.15
2019-02-19T02:42:29.976Z,4.16
2019-02-19T02:43:29.969Z,4.12
2019-02-19T02:44:29.971Z,4.16
2019-02-19T02:45:29.955Z,4.12
2019-02-19T02:46:29.935Z,4.11
2019-02-19T02:47:29.926Z,4.09
2019-02-19T02:48:29.914Z,4.09
2019-02-19T02:49:29.921Z,4.06
2019-02-19T02:50:29.893Z,4.12
2019-02-19T02:51:29.905Z,4.14
2019-02-19T02:52:29.872Z,4.14
2019-02-19T02:53:29.860Z,4.15
2019-02-19T02:54:29.846Z,4.16
2019-02-19T02:55:29.839Z,4.16
2019-02-19T02:56:29.835Z,4.18
2019-02-19T02:57:29.827Z,4.22
2019-02-19T02:58:29.809Z,4.22
2019-02-19T02:59:29.808Z,4.22
2019-02-19T03:00:29.784Z,4.15
2019-02-19T03:01:29.774Z,4.20
2019-02-19T03:02:29.764Z,4.24
2019-02-19T03:03:29.795Z,4.22
2019-02-19T03:04:29.744Z,4.18
2019-02-19T03:05:29.730Z,4.15
2019-02-19T03:06:29.721Z,4.15
2019-02-19T03:07:29.744Z,4.12
2019-02-19T03:08:29.705Z,4.06
2019-02-19T03:09:29.685Z,4.15
2019-02-19T03:10:29.688Z,4.12
2019-02-19T03:11:29.665Z,4.11
2019-02-19T03:12:29.661Z,4.12
2019-02-19T03:13:29.653Z,4.06
2019-02-19T03:14:29.660Z,4.11
2019-02-19T03:15:29.623Z,4.05
2019-02-19T03:16:29.616Z,4.06
2019-02-19T03:17:29.601Z,4.08
2019-02-19T03:18:29.601Z,4.08
2019-02-19T03:19:29.596Z,4.11
2019-02-19T03:20:29.589Z,4.05
2019-02-19T03:21:29.569Z,4.04
2019-02-19T03:22:29.552Z,3.97
2019-02-19T03:23:29.548Z,4.02
2019-02-19T03:24:29.527Z,3.93
2019-02-19T03:25:29.520Z,3.96
2019-02-19T03:26:29.513Z,3.91
2019-02-19T03:27:29.495Z,3.88
2019-02-19T03:28:29.492Z,3.86
2019-02-19T03:29:29.471Z,3.91
2019-02-19T03:30:29.488Z,3.90
2019-02-19T03:31:29.486Z,3.93
2019-02-19T03:32:29.456Z,3.90
2019-02-19T03:33:29.444Z,3.90
2019-02-19T03:34:29.421Z,3.90
2019-02-19T03:35:29.405Z,3.88
2019-02-19T03:36:29.401Z,3.93
2019-02-19T03:37:29.402Z,3.88
2019-02-19T03:38:29.383Z,3.84
2019-02-19T03:39:29.365Z,3.98
2019-02-19T03:40:29.359Z,3.97
2019-02-19T03:41:29.352Z,3.94
2019-02-19T03:42:29.335Z,3.91
2019-02-19T03:43:29.350Z,3.91
2019-02-19T03:44:29.315Z,3.97
2019-02-19T03:45:29.305Z,3.98
2019-02-19T03:46:30.507Z,3.98
2019-02-19T03:47:29.293Z,4.04
2019-02-19T03:48:29.277Z,4.11
2019-02-19T03:49:29.261Z,4.09
2019-02-19T03:50:29.262Z,4.04
2019-02-19T03:51:29.249Z,4.05
2019-02-19T03:52:29.229Z,4.02
2019-02-19T03:53:29.218Z,4.06
2019-02-19T03:54:29.206Z,4.09
2019-02-19T03:55:29.195Z,4.11
2019-02-19T03:56:29.192Z,4.12
2019-02-19T03:57:29.174Z,4.02
2019-02-19T03:58:29.167Z,4.06
2019-02-19T03:59:29.158Z,4.00
2019-02-19T04:00:29.146Z,4.09
2019-02-19T04:01:29.131Z,4.08
2019-02-19T04:02:29.121Z,4.08
2019-02-19T04:03:29.118Z,4.15
2019-02-19T04:04:29.101Z,4.11
2019-02-19T04:05:29.096Z,4.09
2019-02-19T04:06:29.088Z,4.06
2019-02-19T04:07:29.065Z,4.12
2019-02-19T04:08:29.092Z,4.14
2019-02-19T04:09:29.053Z,4.08
2019-02-19T04:10:29.037Z,4.04
2019-02-19T04:11:29.025Z,4.08
2019-02-19T04:12:29.015Z,4.12
2019-02-19T04:13:29.007Z,4.14
2019-02-19T04:14:28.999Z,4.11
2019-02-19T04:15:28.985Z,4.14
2019-02-19T04:16:29.011Z,4.11
2019-02-19T04:17:28.962Z,4.11
2019-02-19T04:18:28.950Z,4.09
2019-02-19T04:19:28.943Z,4.06
2019-02-19T04:20:28.946Z,4.08
2019-02-19T04:21:28.923Z,4.08
2019-02-19T04:22:28.911Z,4.11
2019-02-19T04:23:28.903Z,4.11
2019-02-19T04:24:28.891Z,3.90
2019-02-19T04:25:28.874Z,3.96
2019-02-19T04:26:28.863Z,4.00
2019-02-19T04:27:28.866Z,3.97
2019-02-19T04:28:28.852Z,3.94
2019-02-19T04:29:28.849Z,3.97
2019-02-19T04:30:28.827Z,3.97
2019-02-19T04:31:28.816Z,3.96
2019-02-19T04:32:28.810Z,3.93
2019-02-19T04:33:28.800Z,3.94
2019-02-19T04:34:28.777Z,3.86
2019-02-19T04:35:28.763Z,3.98
2019-02-19T04:36:28.756Z,3.88
2019-02-19T04:37:30.041Z,3.93
2019-02-19T04:38:28.739Z,3.94
2019-02-19T04:39:28.723Z,3.91
2019-02-19T04:40:28.712Z,3.94
2019-02-19T04:41:28.701Z,3.96
2019-02-19T04:42:28.700Z,3.87
2019-02-19T04:43:28.689Z,3.93
2019-02-19T04:44:28.675Z,4.04
2019-02-19T04:45:28.672Z,3.93
2019-02-19T04:46:31.527Z,3.94
2019-02-19T04:47:28.647Z,3.96
2019-02-19T04:48:28.634Z,3.83
2019-02-19T04:49:28.621Z,3.87
2019-02-19T04:50:28.616Z,3.94
2019-02-19T04:51:28.594Z,3.90
2019-02-19T04:52:28.612Z,3.90
2019-02-19T04:53:28.579Z,3.88
2019-02-19T04:54:28.570Z,3.80
2019-02-19T04:55:28.559Z,3.80
2019-02-19T04:56:28.549Z,3.80
2019-02-19T04:57:28.541Z,3.84
2019-02-19T04:58:28.525Z,3.83
2019-02-19T04:59:28.510Z,3.78
2019-02-19T05:00:28.508Z,3.84
2019-02-19T05:01:28.494Z,3.80
2019-02-19T05:02:28.486Z,3.79
2019-02-19T05:03:28.473Z,3.79
2019-02-19T05:04:28.470Z,3.90
2019-02-19T05:05:28.477Z,3.87
2019-02-19T05:06:28.443Z,3.80
2019-02-19T05:07:28.438Z,3.79
2019-02-19T05:08:28.421Z,3.72
2019-02-19T05:09:28.410Z,3.79
2019-02-19T05:10:28.414Z,3.73
2019-02-19T05:11:28.388Z,3.73
2019-02-19T05:12:28.374Z,3.73
2019-02-19T05:13:28.371Z,3.75
2019-02-19T05:14:28.351Z,3.79
2019-02-19T05:15:28.376Z,3.75
2019-02-19T05:16:28.331Z,3.75
2019-02-19T05:17:28.322Z,3.75
2019-02-19T05:18:28.310Z,3.75
2019-02-19T05:19:28.302Z,3.76
2019-02-19T05:20:28.290Z,3.80
2019-02-19T05:21:28.279Z,3.70
2019-02-19T05:22:28.268Z,3.70
2019-02-19T05:23:28.258Z,3.80
2019-02-19T05:24:28.251Z,3.76
2019-02-19T05:25:28.250Z,3.75
2019-02-19T05:26:28.223Z,3.73
2019-02-19T05:27:28.213Z,3.76
2019-02-19T05:28:28.211Z,3.55
2019-02-19T05:29:28.191Z,3.72
2019-02-19T05:30:28.193Z,3.62
2019-02-19T05:31:28.165Z,3.58
2019-02-19T05:32:28.164Z,3.57
2019-02-19T05:33:28.149Z,3.61
2019-02-19T05:34:28.151Z,3.60
2019-02-19T05:35:28.131Z,3.70
2019-02-19T05:36:28.125Z,3.62
2019-02-19T05:37:28.127Z,3.70
2019-02-19T05:38:28.098Z,3.70
2019-02-19T05:39:28.079Z,3.73
2019-02-19T05:40:28.072Z,3.69
2019-02-19T05:41:28.072Z,3.78
2019-02-19T05:42:28.063Z,3.80
2019-02-19T05:43:28.046Z,3.78
2019-02-19T05:44:28.033Z,3.72
2019-02-19T05:45:28.025Z,3.78
2019-02-19T05:46:28.009Z,3.80
2019-02-19T05:47:28.002Z,3.90
2019-02-19T05:48:27.999Z,3.83
2019-02-19T05:49:27.983Z,3.69
2019-02-19T05:50:27.965Z,3.72
2019-02-19T05:51:27.975Z,3.73
2019-02-19T05:52:27.945Z,3.73
2019-02-19T05:53:27.947Z,3.86
2019-02-19T05:54:27.923Z,3.75
2019-02-19T05:55:27.917Z,3.80
2019-02-19T05:56:27.906Z,3.88
2019-02-19T05:57:27.898Z,3.79
2019-02-19T05:58:27.887Z,3.87
2019-02-19T05:59:27.871Z,3.78
2019-02-19T06:00:27.863Z,3.84
2019-02-19T06:01:27.846Z,3.87
2019-02-19T06:02:27.841Z,3.72
2019-02-19T06:03:27.829Z,3.79
2019-02-19T06:04:27.831Z,3.86
2019-02-19T06:05:27.811Z,3.88
2019-02-19T06:06:27.800Z,3.84
2019-02-19T06:07:27.787Z,3.76
2019-02-19T06:08:27.790Z,3.79
2019-02-19T06:09:27.765Z,3.84
2019-02-19T06:10:27.766Z,3.86
2019-02-19T06:11:27.745Z,3.87
2019-02-19T06:12:27.731Z,3.79
2019-02-19T06:13:27.721Z,3.88
2019-02-19T06:14:27.742Z,3.90
2019-02-19T06:15:27.706Z,3.83
2019-02-19T06:16:27.696Z,3.93
2019-02-19T06:17:27.679Z,4.00
2019-02-19T06:18:27.674Z,4.08
2019-02-19T06:19:27.661Z,4.14
2019-02-19T06:20:27.651Z,4.14
2019-02-19T06:21:27.646Z,4.11
2019-02-19T06:22:27.649Z,4.14
2019-02-19T06:23:27.678Z,4.08
2019-02-19T06:24:27.605Z,4.16
2019-02-19T06:25:27.598Z,4.23
2019-02-19T06:26:27.583Z,4.15
2019-02-19T06:27:27.589Z,4.15
2019-02-19T06:28:27.563Z,4.18
2019-02-19T06:29:27.552Z,4.16
2019-02-19T06:30:27.547Z,4.11
2019-02-19T06:31:27.541Z,4.15
2019-02-19T06:32:27.552Z,4.09
2019-02-19T06:33:28.417Z,4.14
2019-02-19T06:34:27.499Z,4.12
2019-02-19T06:35:58.215Z,4.16
2019-02-19T06:36:58.186Z,4.15
2019-02-19T06:38:28.901Z,4.20
2019-02-19T06:39:28.895Z,4.16
2019-02-19T06:40:28.895Z,4.15
2019-02-19T06:41:28.868Z,4.14
2019-02-19T06:42:28.853Z,4.11
2019-02-19T06:43:28.847Z,4.16
2019-02-19T06:44:28.840Z,4.15
2019-02-19T06:45:28.829Z,4.18
2019-02-19T06:46:28.817Z,4.18
2019-02-19T06:47:28.820Z,4.23
2019-02-19T06:48:28.793Z,4.26
2019-02-19T06:49:28.782Z,4.24
2019-02-19T06:50:28.783Z,4.22
2019-02-19T06:51:28.759Z,4.24
2019-02-19T06:52:28.747Z,4.22
2019-02-19T06:53:28.741Z,4.18
2019-02-19T06:54:28.733Z,4.33
2019-02-19T06:55:28.723Z,4.30
2019-02-19T06:56:28.710Z,4.32
2019-02-19T06:57:28.705Z,4.30
2019-02-19T06:58:28.687Z,4.27
2019-02-19T06:59:28.675Z,4.37
2019-02-19T07:00:28.671Z,4.40
2019-02-19T07:01:28.651Z,4.36
2019-02-19T07:02:28.645Z,4.44
2019-02-19T07:03:28.633Z,4.40
2019-02-19T07:04:28.621Z,4.44
2019-02-19T07:05:28.611Z,4.45
2019-02-19T07:06:30.598Z,4.50
2019-02-19T07:07:28.597Z,4.45
2019-02-19T07:08:28.589Z,4.51
2019-02-19T07:09:28.565Z,4.59
2019-02-19T07:10:28.557Z,4.52
2019-02-19T07:11:28.558Z,4.60
2019-02-19T07:12:28.536Z,4.70
2019-02-19T07:13:28.541Z,4.84
2019-02-19T07:14:28.509Z,4.89
2019-02-19T07:15:28.503Z,5.00
2019-02-19T07:16:28.499Z,5.15
2019-02-19T07:17:28.500Z,5.21
2019-02-19T07:18:28.469Z,5.30
2019-02-19T07:19:28.462Z,5.31
2019-02-19T07:20:28.449Z,5.54
2019-02-19T07:21:28.433Z,5.58
2019-02-19T07:22:28.436Z,5.63
2019-02-19T07:23:28.459Z,5.79
2019-02-19T07:24:28.402Z,5.79
2019-02-19T07:25:28.409Z,5.89
2019-02-19T07:26:28.381Z,5.91
2019-02-19T07:27:28.380Z,5.97
2019-02-19T07:28:28.361Z,5.85
2019-02-19T07:29:28.355Z,5.86
2019-02-19T07:30:28.343Z,5.86
2019-02-19T07:31:28.331Z,5.86
2019-02-19T07:32:28.370Z,5.86
2019-02-19T07:33:28.309Z,5.96
2019-02-19T07:34:28.303Z,6.03
2019-02-19T07:35:28.292Z,6.12
2019-02-19T07:36:28.294Z,6.19
2019-02-19T07:37:28.273Z,6.36
2019-02-19T07:38:28.256Z,6.41
2019-02-19T07:39:28.245Z,6.44
2019-02-19T07:40:28.251Z,6.48
2019-02-19T07:41:28.229Z,6.56
2019-02-19T07:42:28.222Z,6.62
2019-02-19T07:43:28.204Z,6.61
2019-02-19T07:44:28.199Z,6.61
2019-02-19T07:45:28.188Z,6.62
2019-02-19T07:46:28.234Z,6.58
2019-02-19T07:47:28.167Z,6.59
2019-02-19T07:48:28.149Z,6.61
2019-02-19T07:49:28.139Z,6.73
2019-02-19T07:50:28.126Z,6.81
2019-02-19T07:51:28.119Z,6.67
2019-02-19T07:52:28.109Z,6.74
2019-02-19T07:53:28.110Z,6.81
2019-02-19T07:54:28.082Z,6.87
2019-02-19T07:55:28.077Z,6.87
2019-02-19T07:56:28.061Z,6.92
2019-02-19T07:57:28.070Z,6.95
2019-02-19T07:58:28.047Z,7.09
2019-02-19T07:59:28.054Z,7.17
2019-02-19T08:00:28.022Z,7.23
2019-02-19T08:01:28.023Z,7.23
2019-02-19T08:02:27.999Z,7.32
2019-02-19T08:03:27.996Z,7.34
2019-02-19T08:04:27.976Z,7.39
2019-02-19T08:05:27.975Z,7.43
2019-02-19T08:06:27.956Z,7.45
2019-02-19T08:07:27.949Z,7.49
2019-02-19T08:08:27.938Z,7.60
2019-02-19T08:09:27.927Z,7.71
2019-02-19T08:10:27.917Z,7.72
2019-02-19T08:11:27.905Z,7.75
2019-02-19T08:12:27.907Z,7.90
2019-02-19T08:13:27.881Z,7.95
2019-02-19T08:14:28.607Z,8.04
2019-02-19T08:15:27.865Z,8.04
2019-02-19T08:16:27.855Z,8.18
2019-02-19T08:17:33.307Z,8.30
2019-02-19T08:18:28.823Z,8.40
2019-02-19T08:19:27.815Z,8.47
2019-02-19T08:20:27.816Z,8.56
2019-02-19T08:21:27.801Z,8.65
2019-02-19T08:22:27.835Z,8.76
2019-02-19T08:23:27.775Z,8.83
2019-02-19T08:24:27.767Z,8.95
2019-02-19T08:25:27.758Z,8.89
2019-02-19T08:26:27.781Z,8.98
2019-02-19T08:27:27.731Z,8.91
2019-02-19T08:28:27.717Z,8.92
2019-02-19T08:29:27.711Z,9.05
2019-02-19T08:30:27.699Z,9.10
2019-02-19T08:31:27.695Z,9.26
2019-02-19T08:32:27.676Z,9.33
2019-02-19T08:33:27.669Z,9.40
2019-02-19T08:34:27.660Z,9.31
2019-02-19T08:35:27.664Z,9.36
2019-02-19T08:36:29.577Z,9.39
2019-02-19T08:37:27.634Z,9.28
2019-02-19T08:38:27.617Z,9.17
2019-02-19T08:39:27.656Z,9.18
2019-02-19T08:40:27.593Z,9.13
2019-02-19T08:41:27.586Z,9.08
2019-02-19T08:42:27.570Z,8.98
2019-02-19T08:43:27.571Z,8.84
2019-02-19T08:44:27.560Z,8.91
2019-02-19T08:45:27.571Z,8.91
2019-02-19T08:46:27.525Z,8.81
2019-02-19T08:47:27.513Z,8.84
2019-02-19T08:48:27.511Z,8.73
2019-02-19T08:49:27.492Z,8.80
2019-02-19T08:50:27.492Z,8.80
2019-02-19T08:51:27.470Z,8.89
2019-02-19T08:52:27.464Z,8.86
2019-02-19T08:53:27.465Z,8.95
2019-02-19T08:54:27.443Z,8.99
2019-02-19T08:55:27.441Z,9.28
2019-02-19T08:56:27.414Z,9.39
2019-02-19T08:57:27.419Z,9.51
2019-02-19T08:58:27.407Z,9.57
2019-02-19T08:59:27.442Z,9.54
2019-02-19T09:00:27.379Z,9.50
2019-02-19T09:01:27.380Z,9.60
2019-02-19T09:02:27.356Z,9.61
2019-02-19T09:03:27.344Z,9.75
2019-02-19T09:04:27.336Z,9.76
2019-02-19T09:05:27.333Z,9.58
2019-02-19T09:06:27.713Z,9.64
2019-02-19T09:07:27.310Z,9.54
2019-02-19T09:08:27.289Z,9.50
2019-02-19T09:09:27.276Z,9.50
2019-02-19T09:10:27.263Z,9.54
2019-02-19T09:11:27.259Z,9.32
2019-02-19T09:12:27.253Z,9.35
2019-02-19T09:13:27.253Z,9.36
2019-02-19T09:14:27.225Z,9.38
2019-02-19T09:15:27.217Z,9.42
2019-02-19T09:16:27.205Z,9.32
2019-02-19T09:17:27.194Z,9.36
2019-02-19T09:18:27.192Z,9.43
2019-02-19T09:19:27.172Z,9.50
2019-02-19T09:20:27.159Z,9.50
2019-02-19T09:21:27.167Z,9.54
2019-02-19T09:22:27.139Z,9.48
2019-02-19T09:23:27.132Z,9.46
2019-02-19T09:24:27.117Z,9.33
2019-02-19T09:25:27.106Z,9.35
2019-02-19T09:26:27.101Z,9.28
2019-02-19T09:27:27.081Z,9.40
2019-02-19T09:28:27.068Z,9.38
2019-02-19T09:29:27.067Z,9.35
2019-02-19T09:30:27.068Z,9.43
2019-02-19T09:31:27.039Z,9.40
2019-02-19T09:32:27.035Z,9.43
2019-02-19T09:33:27.019Z,9.40
2019-02-19T09:34:27.031Z,9.47
2019-02-19T09:35:27.009Z,9.46
2019-02-19T09:36:26.981Z,9.47
2019-02-19T09:37:26.980Z,9.46
2019-02-19T09:38:26.967Z,9.32
2019-02-19T09:39:26.963Z,9.33
2019-02-19T09:40:26.949Z,9.33
2019-02-19T09:41:26.939Z,9.33
2019-02-19T09:42:26.926Z,9.29
2019-02-19T09:43:35.144Z,9.31
2019-02-19T09:44:27.902Z,9.31
2019-02-19T09:45:26.897Z,9.28
2019-02-19T09:46:26.885Z,9.29
2019-02-19T09:47:26.878Z,9.33
2019-02-19T09:48:26.862Z,9.31
2019-02-19T09:49:26.849Z,9.39
2019-02-19T09:50:26.841Z,9.50
2019-02-19T09:51:26.832Z,9.51
2019-02-19T09:52:26.821Z,9.47
2019-02-19T09:53:26.815Z,9.48
2019-02-19T09:54:26.797Z,9.51
2019-02-19T09:55:26.781Z,9.43
2019-02-19T09:56:26.780Z,9.33
2019-02-19T09:57:26.779Z,9.42
2019-02-19T09:58:26.765Z,9.39
2019-02-19T09:59:26.737Z,9.35
2019-02-19T10:00:26.731Z,9.40
2019-02-19T10:01:28.213Z,9.36
2019-02-19T10:02:26.706Z,9.32
2019-02-19T10:03:26.692Z,9.36
2019-02-19T10:04:26.687Z,9.40
2019-02-19T10:05:26.682Z,9.47
2019-02-19T10:06:26.682Z,9.38
2019-02-19T10:07:26.666Z,9.36
2019-02-19T10:08:26.641Z,9.35
2019-02-19T10:09:26.639Z,9.42
2019-02-19T10:10:26.659Z,9.32
2019-02-19T10:11:26.610Z,9.32
2019-02-19T10:12:26.603Z,9.31
2019-02-19T10:13:26.600Z,9.32
2019-02-19T10:14:26.580Z,9.28
2019-02-19T10:15:26.573Z,9.36
2019-02-19T10:16:26.569Z,9.31
2019-02-19T10:17:26.544Z,9.29
2019-02-19T10:18:26.542Z,9.31
2019-02-19T10:19:26.523Z,9.38
2019-02-19T10:20:26.540Z,9.40
2019-02-19T10:21:26.514Z,9.48
2019-02-19T10:22:26.492Z,9.48
2019-02-19T10:23:26.481Z,9.56
2019-02-19T10:24:26.471Z,9.57
2019-02-19T10:25:26.458Z,9.64
2019-02-19T10:26:26.448Z,9.60
2019-02-19T10:27:26.476Z,9.58
2019-02-19T10:28:26.433Z,9.50
2019-02-19T10:29:26.421Z,9.50
2019-02-19T10:30:26.428Z,9.56
2019-02-19T10:31:26.410Z,9.50
2019-02-19T10:32:26.393Z,9.48
2019-02-19T10:33:26.375Z,9.42
2019-02-19T10:34:26.365Z,9.53
2019-02-19T10:35:26.355Z,9.51
2019-02-19T10:36:26.340Z,9.54
2019-02-19T10:37:26.337Z,9.43
2019-02-19T10:38:26.332Z,9.51
2019-02-19T10:39:26.315Z,9.53
2019-02-19T10:40:26.302Z,9.51
2019-02-19T10:41:26.304Z,9.48
2019-02-19T10:42:26.275Z,9.48
2019-02-19T10:43:26.279Z,9.36
2019-02-19T10:44:26.251Z,9.47
2019-02-19T10:45:26.247Z,9.53
2019-02-19T10:46:26.231Z,9.50
2019-02-19T10:47:26.228Z,9.42
2019-02-19T10:48:26.219Z,9.54
2019-02-19T10:49:26.206Z,9.60
2019-02-19T10:50:26.190Z,9.57
2019-02-19T10:51:26.177Z,9.50
2019-02-19T10:52:26.197Z,9.57
2019-02-19T10:53:26.155Z,9.48
2019-02-19T10:54:26.155Z,9.56
2019-02-19T10:55:26.141Z,9.51
2019-02-19T10:56:26.133Z,9.42
2019-02-19T10:57:26.115Z,9.53
2019-02-19T10:58:26.105Z,9.48
2019-02-19T10:59:26.097Z,9.51
2019-02-19T11:00:26.084Z,9.57
2019-02-19T11:01:26.071Z,9.60
2019-02-19T11:02:26.067Z,9.53
2019-02-19T11:03:26.053Z,9.50
2019-02-19T11:04:26.059Z,9.57
2019-02-19T11:05:26.029Z,9.65
2019-02-19T11:06:26.057Z,9.74
2019-02-19T11:07:26.014Z,9.75
2019-02-19T11:08:25.997Z,9.78
2019-02-19T11:09:25.989Z,9.83
2019-02-19T11:10:25.981Z,9.84
2019-02-19T11:11:25.972Z,9.84
2019-02-19T11:12:25.977Z,9.83
2019-02-19T11:13:25.949Z,9.97
2019-02-19T11:14:25.937Z,9.89
2019-02-19T11:15:25.927Z,9.93
2019-02-19T11:16:25.916Z,9.91
2019-02-19T11:17:25.903Z,9.90
2019-02-19T11:18:28.473Z,9.97
2019-02-19T11:19:25.897Z,9.99
2019-02-19T11:20:25.873Z,10.08
2019-02-19T11:21:25.865Z,9.97
2019-02-19T11:22:26.049Z,10.05
2019-02-19T11:23:25.848Z,9.94
2019-02-19T11:24:25.829Z,9.93
2019-02-19T11:25:25.827Z,9.99
2019-02-19T11:26:25.817Z,9.91
2019-02-19T11:27:25.813Z,9.97
2019-02-19T11:28:25.790Z,10.02
2019-02-19T11:29:25.823Z,10.09
2019-02-19T11:30:25.771Z,10.11
2019-02-19T11:31:25.751Z,10.09
2019-02-19T11:32:26.377Z,10.09
2019-02-19T11:33:25.733Z,10.17
2019-02-19T11:34:25.727Z,10.26
2019-02-19T11:35:25.721Z,10.14
2019-02-19T11:36:25.707Z,10.26
2019-02-19T11:37:25.703Z,10.14
2019-02-19T11:38:25.679Z,10.25
2019-02-19T11:39:25.677Z,10.18
2019-02-19T11:40:25.660Z,10.12
2019-02-19T11:41:25.650Z,10.09
2019-02-19T11:42:25.666Z,10.12
2019-02-19T11:43:25.633Z,10.12
2019-02-19T11:44:25.647Z,10.15
2019-02-19T11:45:25.609Z,10.09
2019-02-19T11:46:25.607Z,10.09
2019-02-19T11:47:26.729Z,9.93
2019-02-19T11:48:25.579Z,9.93
2019-02-19T11:49:25.562Z,9.97
2019-02-19T11:50:25.550Z,9.93
2019-02-19T11:51:25.546Z,9.91
2019-02-19T11:52:25.537Z,9.86
2019-02-19T11:53:25.523Z,9.75
2019-02-19T11:54:25.519Z,9.76
2019-02-19T11:55:25.523Z,9.74
2019-02-19T11:56:25.493Z,9.60
2019-02-19T11:57:25.489Z,9.64
2019-02-19T11:58:25.477Z,9.60
2019-02-19T11:59:25.457Z,9.61
2019-02-19T12:00:25.440Z,9.66
2019-02-19T12:01:25.440Z,9.61
2019-02-19T12:02:32.750Z,9.71
2019-02-19T12:03:26.423Z,9.71
2019-02-19T12:04:25.399Z,9.79
2019-02-19T12:05:25.388Z,9.72
2019-02-19T12:06:25.381Z,9.74
2019-02-19T12:07:25.373Z,9.79
2019-02-19T12:08:25.365Z,9.74
2019-02-19T12:09:25.353Z,9.75
2019-02-19T12:10:25.341Z,9.94
2019-02-19T12:11:25.327Z,9.93
2019-02-19T12:12:25.333Z,9.91
2019-02-19T12:13:25.305Z,10.02
2019-02-19T12:14:25.305Z,10.12
2019-02-19T12:15:25.286Z,10.12
2019-02-19T12:16:25.279Z,10.15
2019-02-19T12:17:25.266Z,10.22
2019-02-19T12:18:25.269Z,10.26
2019-02-19T12:19:25.251Z,10.29
2019-02-19T12:20:25.235Z,10.29
2019-02-19T12:21:25.221Z,10.33
2019-02-19T12:22:25.215Z,10.36
2019-02-19T12:23:25.199Z,10.38
2019-02-19T12:24:25.189Z,10.33
2019-02-19T12:25:25.189Z,10.33
2019-02-19T12:26:25.165Z,10.44
2019-02-19T12:27:25.156Z,10.48
2019-02-19T12:28:25.151Z,10.34
2019-02-19T12:29:25.141Z,10.30
2019-02-19T12:30:25.127Z,10.42
2019-02-19T12:31:25.125Z,10.42
2019-02-19T12:32:25.107Z,10.38
2019-02-19T12:33:25.106Z,10.30
2019-02-19T12:34:25.087Z,10.34
2019-02-19T12:35:25.077Z,10.33
2019-02-19T12:36:25.059Z,10.34
2019-02-19T12:37:25.081Z,10.32
2019-02-19T12:38:25.051Z,10.23
2019-02-19T12:39:25.046Z,10.36
2019-02-19T12:40:25.029Z,10.32
2019-02-19T12:41:25.015Z,10.29
2019-02-19T12:42:25.021Z,10.32
2019-02-19T12:43:25.003Z,10.32
2019-02-19T12:44:24.973Z,10.36
2019-02-19T12:45:24.959Z,10.26
2019-02-19T12:46:24.953Z,10.33
2019-02-19T12:47:24.943Z,10.27
2019-02-19T12:48:24.941Z,10.29
2019-02-19T12:49:24.936Z,10.29
2019-02-19T12:50:24.913Z,10.25
2019-02-19T12:51:26.732Z,10.34
2019-02-19T12:52:24.899Z,10.33
2019-02-19T12:53:24.883Z,10.33
2019-02-19T12:54:24.900Z,10.33
2019-02-19T12:55:24.890Z,10.33
2019-02-19T12:56:24.851Z,10.33
2019-02-19T12:57:24.837Z,10.30
2019-02-19T12:58:24.843Z,10.38
2019-02-19T12:59:24.817Z,10.30
2019-02-19T13:00:24.815Z,10.38
2019-02-19T13:01:24.797Z,10.36
2019-02-19T13:02:24.785Z,10.40
2019-02-19T13:03:24.772Z,10.32
2019-02-19T13:04:24.789Z,10.41
2019-02-19T13:05:24.763Z,10.38
2019-02-19T13:06:24.755Z,10.42
2019-02-19T13:07:24.745Z,10.41
2019-02-19T13:08:24.728Z,10.36
2019-02-19T13:09:24.709Z,10.33
2019-02-19T13:10:24.703Z,10.33
2019-02-19T13:11:24.699Z,10.33
2019-02-19T13:12:24.682Z,10.34
2019-02-19T13:13:24.681Z,10.30
2019-02-19T13:14:24.661Z,10.33
2019-02-19T13:15:24.660Z,10.32
2019-02-19T13:16:24.672Z,10.34
2019-02-19T13:17:24.629Z,10.33
2019-02-19T13:18:24.619Z,10.30
2019-02-19T13:19:24.596Z,10.44
2019-02-19T13:20:24.590Z,10.51